createdAt,value
2023-02-28T00:01:24.902Z,-0.02
2023-02-28T00:03:51.425Z,-0.01
2023-02-28T00:06:18.101Z,-0.06
2023-02-28T00:08:44.558Z,0.05
2023-02-28T00:11:13.489Z,0.02
2023-02-28T00:13:43.596Z,-0.04
2023-02-28T00:16:19.001Z,0.08
2023-02-28T00:18:45.766Z,-0.03
2023-02-28T00:21:12.240Z,0.11
2023-02-28T00:23:38.827Z,0.17
2023-02-28T00:26:05.569Z,0.26
2023-02-28T00:28:32.256Z,0.20
2023-02-28T00:30:58.841Z,-0.07
2023-02-28T00:33:25.337Z,0.11
2023-02-28T00:35:51.780Z,-0.05
2023-02-28T00:38:18.343Z,-0.18
2023-02-28T00:40:44.764Z,-0.05
2023-02-28T00:43:16.787Z,0.05
2023-02-28T00:45:43.230Z,-0.18
2023-02-28T00:48:09.630Z,0.03
2023-02-28T00:50:36.008Z,0.13
2023-02-28T00:53:02.459Z,0.11
2023-02-28T00:55:28.876Z,-0.15
2023-02-28T00:57:55.575Z,-0.08
2023-02-28T01:00:22.155Z,0.03
2023-02-28T01:02:48.599Z,-0.20
2023-02-28T01:05:15.053Z,-0.04
2023-02-28T01:07:41.463Z,-0.19
2023-02-28T01:10:08.981Z,-0.33
2023-02-28T01:12:35.403Z,-0.19
2023-02-28T01:15:01.837Z,-0.19
2023-02-28T01:17:28.249Z,-0.28
2023-02-28T01:19:56.703Z,-0.02
2023-02-28T01:22:24.241Z,-0.01
2023-02-28T01:24:51.197Z,0.12
2023-02-28T01:27:17.583Z,0.14
2023-02-28T01:29:43.993Z,0.07
2023-02-28T01:32:10.398Z,-0.16
2023-02-28T01:34:36.847Z,-0.15
2023-02-28T01:37:04.412Z,-0.24
2023-02-28T01:39:30.905Z,-0.13
2023-02-28T01:41:57.367Z,-0.13
2023-02-28T01:45:01.360Z,-0.04
2023-02-28T01:47:39.429Z,-0.09
2023-02-28T01:50:10.697Z,-0.34
2023-02-28T01:52:37.408Z,-0.16
2023-02-28T01:55:06.806Z,-0.35
2023-02-28T01:57:41.384Z,-0.30
2023-02-28T02:00:15.327Z,-0.20
2023-02-28T02:02:48.455Z,-0.04
2023-02-28T02:05:19.620Z,-0.16
2023-02-28T02:07:49.832Z,-0.09
2023-02-28T02:10:18.171Z,-0.10
2023-02-28T02:13:12.281Z,-0.33
2023-02-28T02:15:43.351Z,-0.19
2023-02-28T02:18:29.554Z,-0.03
2023-02-28T02:21:36.313Z,-0.26
2023-02-28T02:24:15.133Z,-0.14
2023-02-28T02:27:34.305Z,-0.19
2023-02-28T02:30:38.635Z,-0.22
2023-02-28T02:33:23.885Z,-0.26
2023-02-28T02:36:03.668Z,-0.12
2023-02-28T02:38:37.671Z,-0.02
2023-02-28T02:41:20.412Z,0.10
2023-02-28T02:44:02.130Z,0.14
2023-02-28T02:46:35.144Z,-0.14
2023-02-28T02:49:07.003Z,-0.06
2023-02-28T02:51:34.991Z,-0.02
2023-02-28T02:54:23.388Z,-0.16
2023-02-28T02:56:51.446Z,-0.17
2023-02-28T02:59:22.869Z,-0.02
2023-02-28T03:01:53.349Z,-0.12
2023-02-28T03:04:22.888Z,-0.07
2023-02-28T03:06:51.291Z,-0.32
2023-02-28T03:09:17.696Z,-0.25
2023-02-28T03:11:44.180Z,-0.36
2023-02-28T03:14:31.120Z,-0.37
2023-02-28T03:17:04.144Z,-0.37
2023-02-28T03:19:45.850Z,-0.29
2023-02-28T03:22:34.217Z,-0.28
2023-02-28T03:25:33.843Z,-0.34
2023-02-28T03:28:28.974Z,-0.36
2023-02-28T03:31:00.483Z,-0.32
2023-02-28T03:33:56.662Z,-0.38
2023-02-28T03:36:28.020Z,-0.35
2023-02-28T03:39:04.535Z,-0.37
2023-02-28T03:41:36.302Z,-0.44
2023-02-28T03:44:16.458Z,-0.21
2023-02-28T03:46:56.355Z,-0.25
2023-02-28T03:49:35.229Z,-0.43
2023-02-28T03:52:06.963Z,-0.26
2023-02-28T03:54:38.652Z,-0.23
2023-02-28T03:57:23.925Z,-0.41
2023-02-28T04:00:12.527Z,-0.49
2023-02-28T04:02:40.485Z,-0.40
2023-02-28T04:05:08.548Z,-0.36
2023-02-28T04:07:35.240Z,-0.38
2023-02-28T04:10:01.710Z,-0.38
2023-02-28T04:12:28.087Z,-0.36
2023-02-28T04:14:54.499Z,-0.34
2023-02-28T04:17:20.897Z,-0.46
2023-02-28T04:19:47.358Z,-0.41
2023-02-28T04:22:14.556Z,-0.37
2023-02-28T04:24:44.073Z,-0.36
2023-02-28T04:27:11.028Z,-0.40
2023-02-28T04:29:37.775Z,-0.43
2023-02-28T04:32:04.550Z,-0.38
2023-02-28T04:34:33.218Z,-0.28
2023-02-28T04:37:14.664Z,-0.22
2023-02-28T04:39:42.146Z,-0.34
2023-02-28T04:42:09.260Z,-0.37
2023-02-28T04:44:35.650Z,-0.39
2023-02-28T04:47:02.178Z,-0.36
2023-02-28T04:49:28.602Z,-0.35
2023-02-28T04:51:55.094Z,-0.44
2023-02-28T04:54:21.487Z,-0.47
2023-02-28T04:56:50.703Z,-0.38
2023-02-28T04:59:17.191Z,-0.42
2023-02-28T05:01:47.990Z,-0.27
2023-02-28T05:04:14.870Z,-0.35
2023-02-28T05:06:41.382Z,-0.34
2023-02-28T05:09:07.775Z,-0.32
2023-02-28T05:11:36.092Z,-0.40
2023-02-28T05:14:16.054Z,-0.32
2023-02-28T05:16:42.794Z,-0.31
2023-02-28T05:19:09.474Z,-0.39
2023-02-28T05:21:38.761Z,-0.43
2023-02-28T05:24:07.349Z,-0.41
2023-02-28T05:26:40.535Z,-0.44
2023-02-28T05:29:07.316Z,-0.43
2023-02-28T05:31:34.491Z,-0.44
2023-02-28T05:34:01.219Z,-0.51
2023-02-28T05:36:27.883Z,-0.36
2023-02-28T05:38:54.290Z,-0.32
2023-02-28T05:41:21.456Z,-0.38
2023-02-28T05:43:48.410Z,-0.41
2023-02-28T05:46:15.663Z,-0.29
2023-02-28T05:48:43.246Z,-0.30
2023-02-28T05:51:10.331Z,-0.38
2023-02-28T05:53:37.010Z,-0.52
2023-02-28T05:56:04.541Z,-0.39
2023-02-28T05:58:32.304Z,-0.48
2023-02-28T06:01:00.090Z,-0.41
2023-02-28T06:03:27.586Z,-0.44
2023-02-28T06:05:54.404Z,-0.58
2023-02-28T06:08:20.803Z,-0.47
2023-02-28T06:10:47.691Z,-0.48
2023-02-28T06:13:14.156Z,-0.40
2023-02-28T06:15:40.746Z,-0.45
2023-02-28T06:18:07.466Z,-0.48
2023-02-28T06:20:34.356Z,-0.35
2023-02-28T06:23:00.829Z,-0.40
2023-02-28T06:25:28.567Z,-0.43
2023-02-28T06:27:56.420Z,-0.38
2023-02-28T06:30:27.845Z,-0.35
2023-02-28T06:32:55.570Z,-0.39
2023-02-28T06:35:24.204Z,-0.35
2023-02-28T06:37:50.650Z,-0.26
2023-02-28T06:40:17.201Z,-0.33
2023-02-28T06:42:43.964Z,-0.30
2023-02-28T06:45:12.267Z,-0.11
2023-02-28T06:47:41.118Z,-0.40
2023-02-28T06:50:10.716Z,-0.41
2023-02-28T06:52:38.266Z,-0.40
2023-02-28T06:55:06.572Z,-0.46
2023-02-28T06:57:34.332Z,-0.35
2023-02-28T07:00:02.188Z,-0.42
2023-02-28T07:02:29.128Z,-0.38
2023-02-28T07:04:55.772Z,-0.33
2023-02-28T07:07:22.363Z,-0.33
2023-02-28T07:09:48.780Z,-0.33
2023-02-28T07:12:15.218Z,-0.31
2023-02-28T07:14:41.673Z,-0.23
2023-02-28T07:17:09.641Z,-0.20
2023-02-28T07:19:36.016Z,-0.08
2023-02-28T07:22:03.840Z,0.11
2023-02-28T07:24:30.377Z,0.17
2023-02-28T07:26:57.147Z,0.16
2023-02-28T07:29:27.108Z,0.41
2023-02-28T07:31:54.231Z,0.47
2023-02-28T07:34:24.072Z,0.51
2023-02-28T07:36:54.528Z,0.82
2023-02-28T07:39:22.002Z,0.85
2023-02-28T07:41:48.895Z,1.06
2023-02-28T07:44:15.446Z,1.43
2023-02-28T07:46:41.890Z,1.77
2023-02-28T07:49:08.289Z,2.28
2023-02-28T07:51:34.849Z,2.93
2023-02-28T07:54:01.424Z,3.67
2023-02-28T07:56:32.136Z,3.73
2023-02-28T07:58:58.791Z,2.90
2023-02-28T08:01:25.310Z,3.25
2023-02-28T08:03:51.806Z,3.11
2023-02-28T08:06:22.853Z,3.65
2023-02-28T08:08:49.910Z,3.88
2023-02-28T08:11:17.732Z,4.40
2023-02-28T08:13:45.649Z,4.25
2023-02-28T08:16:18.395Z,3.89
2023-02-28T08:18:45.071Z,4.31
2023-02-28T08:21:13.572Z,4.57
2023-02-28T08:23:44.650Z,4.79
2023-02-28T08:26:13.149Z,4.04
2023-02-28T08:28:42.367Z,5.18
2023-02-28T08:31:18.021Z,5.25
2023-02-28T08:33:45.630Z,5.33
2023-02-28T08:36:12.193Z,5.01
2023-02-28T08:38:41.243Z,5.18
2023-02-28T08:41:10.663Z,5.47
2023-02-28T08:43:37.859Z,5.20
2023-02-28T08:46:05.376Z,5.00
2023-02-28T08:48:33.888Z,6.13
2023-02-28T08:51:07.710Z,6.51
2023-02-28T08:53:34.870Z,6.09
2023-02-28T08:56:07.214Z,5.33
2023-02-28T08:58:35.193Z,5.36
2023-02-28T09:01:08.275Z,6.14
2023-02-28T09:03:34.767Z,6.14
2023-02-28T09:06:01.831Z,5.88
2023-02-28T09:08:31.462Z,5.31
2023-02-28T09:10:59.478Z,5.38
2023-02-28T09:13:27.718Z,6.21
2023-02-28T09:15:55.218Z,6.21
2023-02-28T09:18:22.303Z,5.81
2023-02-28T09:20:48.763Z,5.57
2023-02-28T09:23:15.486Z,7.28
2023-02-28T09:25:50.421Z,6.03
2023-02-28T09:28:17.757Z,6.99
2023-02-28T09:30:49.811Z,4.68
2023-02-28T09:33:18.069Z,4.62
2023-02-28T09:35:53.248Z,4.12
2023-02-28T09:38:19.701Z,5.29
2023-02-28T09:40:51.766Z,4.92
2023-02-28T09:43:21.025Z,5.96
2023-02-28T09:46:32.733Z,6.50
2023-02-28T09:49:02.948Z,5.83
2023-02-28T09:51:52.385Z,6.33
2023-02-28T09:54:23.142Z,4.61
2023-02-28T09:57:16.558Z,6.24
2023-02-28T09:59:56.388Z,6.99
2023-02-28T10:02:32.568Z,6.92
2023-02-28T10:05:15.681Z,4.16
2023-02-28T10:08:15.208Z,6.72
2023-02-28T10:10:49.570Z,6.31
2023-02-28T10:13:30.948Z,7.27
2023-02-28T10:16:04.220Z,7.26
2023-02-28T10:18:46.259Z,7.12
2023-02-28T10:21:24.743Z,8.02
2023-02-28T10:24:06.054Z,5.70
2023-02-28T10:26:34.089Z,5.94
2023-02-28T10:29:01.028Z,7.53
2023-02-28T10:31:27.819Z,6.14
2023-02-28T10:33:54.312Z,7.14
2023-02-28T10:36:22.137Z,6.74
2023-02-28T10:38:49.389Z,6.54
2023-02-28T10:41:27.642Z,6.01
2023-02-28T10:43:54.164Z,6.49
2023-02-28T10:46:27.045Z,7.38
2023-02-28T10:49:13.555Z,5.67
2023-02-28T10:51:42.077Z,7.75
2023-02-28T10:54:23.171Z,5.94
2023-02-28T10:57:19.827Z,5.16
2023-02-28T11:00:06.401Z,5.99
2023-02-28T11:02:36.228Z,5.60
2023-02-28T11:05:03.330Z,5.94
2023-02-28T11:07:37.330Z,6.06
2023-02-28T11:10:20.934Z,5.69
2023-02-28T11:12:52.874Z,5.80
2023-02-28T11:15:27.888Z,5.89
2023-02-28T11:17:59.192Z,5.53
2023-02-28T11:20:29.184Z,6.44
2023-02-28T11:22:57.013Z,5.21
2023-02-28T11:25:35.881Z,6.23
2023-02-28T11:28:07.310Z,4.64
2023-02-28T11:30:41.725Z,6.52
2023-02-28T11:33:30.589Z,6.43
2023-02-28T11:36:02.866Z,5.36
2023-02-28T11:38:29.636Z,5.20
2023-02-28T11:41:05.468Z,4.80
2023-02-28T11:43:56.447Z,5.18
2023-02-28T11:46:45.744Z,6.97
2023-02-28T11:50:02.166Z,5.87
2023-02-28T11:52:40.350Z,6.65
2023-02-28T11:55:09.916Z,6.14
2023-02-28T11:57:57.797Z,8.21
2023-02-28T12:00:59.863Z,8.09
2023-02-28T12:03:34.579Z,8.61
2023-02-28T12:06:24.089Z,6.54
2023-02-28T12:09:33.198Z,7.91
2023-02-28T12:12:31.114Z,5.54
2023-02-28T12:15:30.202Z,6.61
2023-02-28T12:18:11.690Z,6.92
2023-02-28T12:20:47.000Z,7.36
2023-02-28T12:23:48.405Z,7.08
2023-02-28T12:26:28.853Z,6.19
2023-02-28T12:29:11.077Z,6.32
2023-02-28T12:31:46.854Z,6.06
2023-02-28T12:34:24.224Z,6.54
2023-02-28T12:36:54.857Z,8.41
2023-02-28T12:39:32.591Z,8.30
2023-02-28T12:42:18.161Z,7.81
2023-02-28T12:44:54.111Z,9.38
2023-02-28T12:47:20.850Z,8.13
2023-02-28T12:49:52.631Z,5.57
2023-02-28T12:52:52.092Z,7.61
2023-02-28T12:55:37.016Z,6.21
2023-02-28T12:58:16.903Z,8.72
2023-02-28T13:01:04.204Z,6.60
2023-02-28T13:04:05.169Z,6.91
2023-02-28T13:06:43.748Z,8.17
2023-02-28T13:09:16.569Z,6.47
2023-02-28T13:11:52.111Z,7.61
2023-02-28T13:14:24.749Z,7.48
2023-02-28T13:16:58.217Z,7.27
2023-02-28T13:19:27.706Z,7.27
2023-02-28T13:21:56.637Z,5.96
2023-02-28T13:24:35.396Z,6.65
2023-02-28T13:27:01.782Z,6.23
2023-02-28T13:29:45.420Z,6.67
2023-02-28T13:32:11.852Z,7.43
2023-02-28T13:34:40.670Z,6.86
2023-02-28T13:37:19.121Z,6.89
2023-02-28T13:39:49.871Z,6.50
2023-02-28T13:42:22.350Z,6.54
2023-02-28T13:45:04.118Z,6.17
2023-02-28T13:47:50.050Z,4.22
2023-02-28T13:50:30.479Z,4.77
2023-02-28T13:53:16.730Z,4.36
2023-02-28T13:55:54.670Z,4.94
2023-02-28T13:58:43.239Z,4.72
2023-02-28T14:01:45.922Z,5.49
2023-02-28T14:05:17.415Z,4.44
2023-02-28T14:07:51.775Z,4.83
2023-02-28T14:10:42.379Z,4.63
2023-02-28T14:13:13.683Z,4.67
2023-02-28T14:15:48.064Z,4.17
2023-02-28T14:18:32.019Z,4.08
2023-02-28T14:21:01.169Z,3.73
2023-02-28T14:23:36.891Z,4.38
2023-02-28T14:26:17.838Z,4.18
2023-02-28T14:28:53.614Z,4.05
2023-02-28T14:31:25.423Z,3.87
2023-02-28T14:34:20.983Z,4.07
2023-02-28T14:36:50.109Z,3.94
2023-02-28T14:39:20.762Z,4.28
2023-02-28T14:41:47.598Z,3.81
2023-02-28T14:44:18.777Z,3.71
2023-02-28T14:46:47.549Z,3.88
2023-02-28T14:49:35.252Z,4.01
2023-02-28T14:52:13.743Z,4.13
2023-02-28T14:54:41.067Z,4.13
2023-02-28T14:57:26.341Z,4.02
2023-02-28T15:00:24.122Z,3.56
2023-02-28T15:02:50.942Z,3.75
2023-02-28T15:05:25.591Z,3.29
2023-02-28T15:08:04.212Z,3.76
2023-02-28T15:10:31.597Z,3.73
2023-02-28T15:13:16.006Z,3.49
2023-02-28T15:16:01.327Z,3.35
2023-02-28T15:18:43.006Z,3.03
2023-02-28T15:21:17.782Z,3.46
2023-02-28T15:23:50.685Z,3.53
2023-02-28T15:26:20.277Z,3.54
2023-02-28T15:28:46.900Z,3.51
2023-02-28T15:31:35.573Z,3.31
2023-02-28T15:34:07.586Z,3.51
2023-02-28T15:36:38.155Z,3.35
2023-02-28T15:39:20.441Z,3.35
2023-02-28T15:41:46.977Z,3.29
2023-02-28T15:44:27.972Z,2.87
2023-02-28T15:46:56.231Z,3.06
2023-02-28T15:49:24.708Z,3.13
2023-02-28T15:51:55.444Z,3.07
2023-02-28T15:54:30.293Z,3.17
2023-02-28T15:57:00.538Z,3.04
2023-02-28T15:59:32.246Z,3.22
2023-02-28T16:02:19.488Z,2.91
2023-02-28T16:05:18.819Z,2.95
2023-02-28T16:07:45.967Z,2.87
2023-02-28T16:10:15.183Z,2.77
2023-02-28T16:12:42.608Z,2.67
2023-02-28T16:15:31.278Z,2.60
2023-02-28T16:17:58.690Z,2.52
2023-02-28T16:20:27.682Z,2.53
2023-02-28T16:22:54.305Z,2.53
2023-02-28T16:25:24.555Z,2.42
2023-02-28T16:27:54.933Z,2.32
2023-02-28T16:30:23.644Z,2.33
2023-02-28T16:32:50.881Z,2.37
2023-02-28T16:35:18.908Z,2.34
2023-02-28T16:37:45.763Z,2.30
2023-02-28T16:40:17.959Z,2.19
2023-02-28T16:42:46.905Z,2.20
2023-02-28T16:45:20.226Z,2.10
2023-02-28T16:47:47.682Z,2.06
2023-02-28T16:50:16.227Z,1.94
2023-02-28T16:52:42.890Z,1.97
2023-02-28T16:55:12.032Z,1.88
2023-02-28T16:57:39.845Z,1.91
2023-02-28T17:00:09.104Z,1.86
2023-02-28T17:02:35.978Z,1.81
2023-02-28T17:05:02.660Z,1.77
2023-02-28T17:07:29.127Z,1.65
2023-02-28T17:09:55.740Z,1.68
2023-02-28T17:12:22.218Z,1.64
2023-02-28T17:14:48.687Z,1.68
2023-02-28T17:17:22.727Z,1.57
2023-02-28T17:19:49.413Z,1.55
2023-02-28T17:22:15.813Z,1.52
2023-02-28T17:24:42.260Z,1.49
2023-02-28T17:27:13.229Z,1.41
2023-02-28T17:29:39.668Z,1.32
2023-02-28T17:32:17.210Z,1.29
2023-02-28T17:34:45.165Z,1.37
2023-02-28T17:37:14.732Z,1.36
2023-02-28T17:39:41.263Z,1.27
2023-02-28T17:42:09.001Z,1.32
2023-02-28T17:44:35.547Z,1.32
2023-02-28T17:47:02.061Z,1.16
2023-02-28T17:49:29.713Z,1.17
2023-02-28T17:51:56.190Z,1.23
2023-02-28T17:54:22.649Z,1.05
2023-02-28T17:56:49.065Z,1.01
2023-02-28T17:59:15.540Z,1.02
2023-02-28T18:01:42.045Z,0.98
2023-02-28T18:04:08.532Z,0.84
2023-02-28T18:06:47.365Z,0.85
2023-02-28T18:09:23.701Z,0.81
2023-02-28T18:11:51.629Z,0.78
2023-02-28T18:14:19.676Z,0.78
2023-02-28T18:16:49.468Z,0.88
2023-02-28T18:19:19.200Z,0.79
2023-02-28T18:21:51.940Z,0.62
2023-02-28T18:24:21.646Z,0.60
2023-02-28T18:26:48.089Z,0.57
2023-02-28T18:29:23.938Z,0.57
2023-02-28T18:31:51.722Z,0.60
2023-02-28T18:34:18.763Z,0.58
2023-02-28T18:36:47.201Z,0.64
2023-02-28T18:39:14.185Z,0.54
2023-02-28T18:41:40.826Z,0.63
2023-02-28T18:44:17.696Z,0.49
2023-02-28T18:46:46.102Z,0.42
2023-02-28T18:49:12.719Z,0.44
2023-02-28T18:51:39.263Z,0.44
2023-02-28T18:54:05.820Z,0.39
2023-02-28T18:56:32.542Z,0.31
2023-02-28T18:58:59.169Z,0.33
2023-02-28T19:01:32.602Z,0.35
2023-02-28T19:04:01.219Z,0.25
2023-02-28T19:06:30.019Z,0.31
2023-02-28T19:08:58.944Z,0.28
2023-02-28T19:11:26.821Z,0.32
2023-02-28T19:13:53.841Z,0.34
2023-02-28T19:16:22.330Z,0.27
2023-02-28T19:18:48.865Z,0.22
2023-02-28T19:21:17.773Z,0.18
2023-02-28T19:23:44.631Z,0.11
2023-02-28T19:26:15.513Z,0.00
2023-02-28T19:28:42.941Z,-0.07
2023-02-28T19:31:25.093Z,-0.02
2023-02-28T19:33:53.032Z,-0.07
2023-02-28T19:36:19.693Z,-0.10
2023-02-28T19:38:46.521Z,-0.14
2023-02-28T19:41:14.767Z,-0.12
2023-02-28T19:43:41.271Z,-0.03
2023-02-28T19:46:09.615Z,-0.20
2023-02-28T19:48:36.847Z,-0.10
2023-02-28T19:51:10.396Z,-0.01
2023-02-28T19:53:37.497Z,-0.06
2023-02-28T19:56:04.890Z,-0.06
2023-02-28T19:58:31.707Z,-0.16
2023-02-28T20:01:01.141Z,-0.07
2023-02-28T20:03:27.606Z,-0.14
2023-02-28T20:06:02.626Z,-0.13
2023-02-28T20:08:29.152Z,-0.07
2023-02-28T20:10:55.589Z,-0.24
2023-02-28T20:13:25.885Z,-0.26
2023-02-28T20:15:54.663Z,-0.29
2023-02-28T20:18:21.158Z,-0.34
2023-02-28T20:20:47.560Z,-0.44
2023-02-28T20:23:13.957Z,-0.37
2023-02-28T20:25:41.896Z,-0.32
2023-02-28T20:28:08.422Z,-0.35
2023-02-28T20:30:34.872Z,-0.33
2023-02-28T20:33:01.681Z,-0.35
2023-02-28T20:35:28.162Z,-0.34
2023-02-28T20:37:54.991Z,-0.21
2023-02-28T20:40:21.407Z,-0.34
2023-02-28T20:42:47.811Z,-0.33
2023-02-28T20:45:14.217Z,-0.35
2023-02-28T20:47:42.527Z,-0.62
2023-02-28T20:50:09.943Z,-0.55
2023-02-28T20:52:36.418Z,-0.41
2023-02-28T20:55:02.810Z,-0.37
2023-02-28T20:57:30.648Z,-0.45
2023-02-28T20:59:57.041Z,-0.30
2023-02-28T21:02:23.546Z,-0.33
2023-02-28T21:04:52.487Z,-0.40
2023-02-28T21:07:19.062Z,-0.47
2023-02-28T21:09:45.628Z,-0.46
2023-02-28T21:12:12.071Z,-0.40
2023-02-28T21:14:38.498Z,-0.52
2023-02-28T21:17:08.530Z,-0.53
2023-02-28T21:19:34.939Z,-0.64
2023-02-28T21:22:01.507Z,-0.51
2023-02-28T21:24:27.959Z,-0.40
2023-02-28T21:26:56.876Z,-0.60
2023-02-28T21:29:23.740Z,-0.53
2023-02-28T21:31:56.012Z,-0.72
2023-02-28T21:34:23.023Z,-0.66
2023-02-28T21:36:49.417Z,-0.70
2023-02-28T21:39:23.299Z,-0.67
2023-02-28T21:41:49.804Z,-0.76
2023-02-28T21:44:19.340Z,-0.85
2023-02-28T21:46:47.813Z,-0.75
2023-02-28T21:49:14.959Z,-0.89
2023-02-28T21:51:42.774Z,-0.84
2023-02-28T21:54:10.812Z,-0.85
2023-02-28T21:56:37.513Z,-0.82
2023-02-28T21:59:04.408Z,-0.87
2023-02-28T22:01:37.106Z,-0.90
2023-02-28T22:04:06.108Z,-0.95
2023-02-28T22:06:35.788Z,-0.98
2023-02-28T22:09:06.027Z,-1.00
2023-02-28T22:11:33.837Z,-1.07
2023-02-28T22:14:06.639Z,-1.05
2023-02-28T22:16:50.290Z,-0.93
2023-02-28T22:19:17.943Z,-1.05
2023-02-28T22:21:45.673Z,-0.92
2023-02-28T22:24:12.270Z,-0.97
2023-02-28T22:26:38.701Z,-0.97
2023-02-28T22:29:08.548Z,-1.08
2023-02-28T22:31:36.287Z,-1.08
2023-02-28T22:34:08.750Z,-1.11
2023-02-28T22:36:35.623Z,-0.98
2023-02-28T22:39:03.191Z,-1.19
2023-02-28T22:41:30.472Z,-1.19
2023-02-28T22:44:01.981Z,-1.30
2023-02-28T22:46:31.678Z,-1.13
2023-02-28T22:48:59.733Z,-1.13
2023-02-28T22:51:27.439Z,-1.22
2023-02-28T22:53:55.860Z,-1.31
2023-02-28T22:56:24.598Z,-1.36
2023-02-28T22:58:52.776Z,-1.48
2023-02-28T23:01:21.983Z,-1.49
2023-02-28T23:03:48.617Z,-1.36
2023-02-28T23:06:19.643Z,-1.45
2023-02-28T23:08:46.375Z,-1.32
2023-02-28T23:11:20.327Z,-1.38
2023-02-28T23:13:58.250Z,-1.41
2023-02-28T23:16:36.400Z,-1.31
2023-02-28T23:19:06.653Z,-1.33
2023-02-28T23:21:34.342Z,-1.41
2023-02-28T23:24:02.782Z,-1.40
2023-02-28T23:26:31.253Z,-1.47
2023-02-28T23:28:59.302Z,-1.35
2023-02-28T23:31:25.859Z,-1.41
2023-02-28T23:33:52.564Z,-1.36
2023-02-28T23:36:19.204Z,-1.47
2023-02-28T23:38:48.922Z,-1.52
2023-02-28T23:41:21.265Z,-1.60
2023-02-28T23:43:47.944Z,-1.39
2023-02-28T23:46:16.238Z,-1.54
2023-02-28T23:48:43.310Z,-1.44
2023-02-28T23:51:16.599Z,-1.62
2023-02-28T23:53:45.916Z,-1.71
2023-02-28T23:56:14.847Z,-1.59
2023-02-28T23:58:42.406Z,-1.62
